Terminal Aerodrome Forecast
Issued by NWS Twin Cities, MN

Home | Current Version | Previous Version | Graphics & Text | Print | Product List | Glossary On
Versions: 1 2 3 4 5 6 7 8 9 10 11 12 13
000
FTUS43 KMPX 250525
TAFSTC
TAF
KSTC 250525Z 2506/2606 35007KT P6SM BKN100
     FM251100 02007KT P6SM OVC060
     FM251800 01009KT P6SM BKN040
     FM260100 35008KT P6SM SKC=

USA.gov is the U.S. government's official web portal to all federal, state and local government web resources and services.